Time;durP1;ratioP1;P1;durP2;ratioP2;P2;SDS_P1;SDS_P2;PMS_P1;PMS_P2;Temp;Humidity;BMP_temperature;BMP_pressure;BME280_temperature;BME280_humidity;BME280_pressure;Samples;Min_cycle;Max_cycle;Signal;HPM_P1;HPM_P2
2023/06/14 00:01:14;;;;;;;7.93;2.80;;;;;;;;;;4977863;28;98412;-78
2023/06/14 00:03:40;;;;;;;4.78;2.75;;;;;;;;;;4981290;28;98978;-78
2023/06/14 00:06:07;;;;;;;7.97;2.40;;;;;;;;;;4988407;28;98486;-78
2023/06/14 00:08:33;;;;;;;7.72;2.40;;;;;;;;;;4981621;28;98322;-78
2023/06/14 00:11:00;;;;;;;5.82;2.25;;;;;;;;;;4976189;28;97538;-78
2023/06/14 00:13:27;;;;;;;5.97;2.22;;;;;;;;;;4952531;28;100534;-78
2023/06/14 00:15:54;;;;;;;7.70;2.55;;;;;;;;;;4959993;28;98422;-79
2023/06/14 00:18:23;;;;;;;7.95;2.42;;;;;;;;;;4975027;28;99350;-78
2023/06/14 00:20:51;;;;;;;9.48;2.30;;;;;;;;;;4978668;28;98478;-78
2023/06/14 00:23:18;;;;;;;10.02;2.80;;;;;;;;;;4977022;28;99176;-78
2023/06/14 00:25:44;;;;;;;3.25;2.58;;;;;;;;;;4973563;28;99030;-78
2023/06/14 00:28:11;;;;;;;9.25;2.55;;;;;;;;;;4955430;28;98418;-78
2023/06/14 00:30:37;;;;;;;9.43;3.63;;;;;;;;;;4974402;28;98514;-78
2023/06/14 00:33:04;;;;;;;5.47;2.65;;;;;;;;;;4954873;28;100306;-78
2023/06/14 00:35:31;;;;;;;15.70;3.22;;;;;;;;;;4978196;28;97799;-78
2023/06/14 00:37:57;;;;;;;4.75;2.58;;;;;;;;;;4982232;28;98510;-78
2023/06/14 00:40:24;;;;;;;7.28;2.53;;;;;;;;;;4962245;28;98623;-78
2023/06/14 00:42:50;;;;;;;7.90;2.65;;;;;;;;;;4957342;28;100910;-78
2023/06/14 00:45:17;;;;;;;4.75;2.63;;;;;;;;;;4971303;28;98403;-78
2023/06/14 00:47:45;;;;;;;9.35;3.00;;;;;;;;;;4952006;28;98537;-78
2023/06/14 00:50:12;;;;;;;3.70;2.60;;;;;;;;;;4966516;28;98874;-78
2023/06/14 00:52:39;;;;;;;5.10;2.40;;;;;;;;;;4974958;28;98221;-78
2023/06/14 00:55:09;;;;;;;7.47;2.40;;;;;;;;;;4958201;28;98598;-78
2023/06/14 00:57:37;;;;;;;5.63;2.13;;;;;;;;;;4972355;28;98581;-78
2023/06/14 01:00:08;;;;;;;5.78;2.42;;;;;;;;;;4947398;28;97806;-78
2023/06/14 01:02:37;;;;;;;10.02;2.58;;;;;;;;;;4936393;28;99470;-78
2023/06/14 01:05:06;;;;;;;3.97;1.90;;;;;;;;;;4954699;28;99757;-78
2023/06/14 01:07:42;;;;;;;8.98;2.83;;;;;;;;;;4971977;28;99244;-78
2023/06/14 01:10:26;;;;;;;8.98;2.22;;;;;;;;;;4965661;28;98471;-78
2023/06/14 01:12:58;;;;;;;10.95;2.50;;;;;;;;;;4967491;28;98809;-78
2023/06/14 01:15:25;;;;;;;5.05;2.60;;;;;;;;;;4964672;28;98701;-78
2023/06/14 01:17:53;;;;;;;14.43;2.58;;;;;;;;;;4944281;28;100857;-78
2023/06/14 01:20:21;;;;;;;6.28;2.60;;;;;;;;;;4935290;28;98559;-78
2023/06/14 01:22:54;;;;;;;3.67;2.28;;;;;;;;;;4960780;28;98517;-78
2023/06/14 01:25:22;;;;;;;3.20;2.50;;;;;;;;;;4955647;28;97701;-78
2023/06/14 01:27:50;;;;;;;8.02;2.30;;;;;;;;;;4954908;28;98543;-78
2023/06/14 01:30:17;;;;;;;5.15;2.05;;;;;;;;;;4986373;28;99147;-78
2023/06/14 01:32:46;;;;;;;13.95;2.60;;;;;;;;;;4971896;28;100478;-78
2023/06/14 01:35:12;;;;;;;8.07;2.88;;;;;;;;;;4974314;28;98447;-78
2023/06/14 01:37:40;;;;;;;5.57;2.85;;;;;;;;;;4971703;28;98879;-78
2023/06/14 01:40:07;;;;;;;4.38;2.40;;;;;;;;;;4975428;28;99255;-78
2023/06/14 01:42:35;;;;;;;13.82;3.17;;;;;;;;;;4958410;28;98360;-79
2023/06/14 01:45:04;;;;;;;2.80;2.50;;;;;;;;;;4959880;28;101643;-79
2023/06/14 01:47:31;;;;;;;11.32;2.60;;;;;;;;;;4961537;28;98623;-78
2023/06/14 01:49:58;;;;;;;17.50;2.47;;;;;;;;;;4957482;28;100884;-78
2023/06/14 01:52:25;;;;;;;3.85;2.30;;;;;;;;;;4953087;28;101018;-78
2023/06/14 01:54:51;;;;;;;3.50;2.58;;;;;;;;;;4966637;28;99175;-78
2023/06/14 01:57:20;;;;;;;3.97;2.50;;;;;;;;;;4983583;28;98931;-78
2023/06/14 01:59:50;;;;;;;2.72;2.47;;;;;;;;;;4957900;28;100528;-79
2023/06/14 02:02:17;;;;;;;6.53;2.60;;;;;;;;;;4987265;28;98480;-78
2023/06/14 02:04:43;;;;;;;4.78;2.50;;;;;;;;;;4976515;28;102249;-78
2023/06/14 02:07:10;;;;;;;3.50;2.35;;;;;;;;;;4962177;28;98421;-78
2023/06/14 02:09:37;;;;;;;9.25;2.20;;;;;;;;;;4963357;28;99349;-78
2023/06/14 02:12:04;;;;;;;8.02;2.55;;;;;;;;;;4956309;28;98517;-78
2023/06/14 02:14:30;;;;;;;8.27;2.63;;;;;;;;;;4955323;28;97903;-78
2023/06/14 02:16:57;;;;;;;7.82;2.30;;;;;;;;;;4958152;28;98405;-78
2023/06/14 02:19:24;;;;;;;7.40;2.38;;;;;;;;;;4966609;28;98657;-78
2023/06/14 02:21:50;;;;;;;4.95;2.25;;;;;;;;;;4974049;28;99304;-78
2023/06/14 02:24:17;;;;;;;11.50;2.90;;;;;;;;;;4962752;28;98531;-78
2023/06/14 02:26:43;;;;;;;3.85;2.00;;;;;;;;;;4960442;28;98312;-78
2023/06/14 02:29:14;;;;;;;2.33;2.13;;;;;;;;;;4975584;28;99353;-79
2023/06/14 02:31:41;;;;;;;15.23;2.58;;;;;;;;;;4976358;28;98467;-78
2023/06/14 02:34:11;;;;;;;11.05;2.38;;;;;;;;;;4976152;28;98156;-78
2023/06/14 02:36:41;;;;;;;6.90;2.30;;;;;;;;;;4957551;28;99243;-79
2023/06/14 02:39:12;;;;;;;6.57;2.65;;;;;;;;;;4974022;28;99488;-78
2023/06/14 02:41:38;;;;;;;10.77;2.33;;;;;;;;;;4971649;28;98025;-78
2023/06/14 02:44:06;;;;;;;3.20;2.05;;;;;;;;;;4973620;28;101064;-78
2023/06/14 02:46:32;;;;;;;4.03;2.67;;;;;;;;;;4960736;28;98720;-78
2023/06/14 02:48:59;;;;;;;8.52;2.70;;;;;;;;;;4971530;28;100915;-78
2023/06/14 02:51:26;;;;;;;5.47;2.75;;;;;;;;;;4959555;28;98477;-78
2023/06/14 02:53:52;;;;;;;2.88;2.60;;;;;;;;;;4990322;28;98342;-78
2023/06/14 02:56:19;;;;;;;5.28;2.55;;;;;;;;;;4975546;28;98505;-78
2023/06/14 02:58:48;;;;;;;12.07;3.05;;;;;;;;;;4971652;28;100416;-78
2023/06/14 03:01:16;;;;;;;3.05;1.80;;;;;;;;;;4968973;28;98518;-78
2023/06/14 03:03:43;;;;;;;10.30;2.70;;;;;;;;;;4972730;28;97757;-78
2023/06/14 03:06:12;;;;;;;3.60;2.60;;;;;;;;;;4971936;28;100235;-78
2023/06/14 03:08:41;;;;;;;10.85;2.83;;;;;;;;;;4954048;28;100741;-78
2023/06/14 03:11:12;;;;;;;7.90;2.97;;;;;;;;;;4966453;28;101634;-78
2023/06/14 03:13:40;;;;;;;7.68;2.83;;;;;;;;;;4959628;28;98611;-78
2023/06/14 03:16:08;;;;;;;5.70;2.80;;;;;;;;;;4956885;28;98504;-78
2023/06/14 03:18:38;;;;;;;6.78;3.03;;;;;;;;;;4943288;28;101610;-78
2023/06/14 03:21:07;;;;;;;8.50;2.60;;;;;;;;;;4959144;28;98493;-78
2023/06/14 03:23:33;;;;;;;14.48;3.22;;;;;;;;;;4930107;28;98455;-78
2023/06/14 03:26:02;;;;;;;9.50;2.88;;;;;;;;;;4956292;28;100907;-78
2023/06/14 03:28:29;;;;;;;9.88;3.33;;;;;;;;;;4978227;28;97686;-79
2023/06/14 03:30:57;;;;;;;10.38;3.28;;;;;;;;;;4969830;28;99202;-78
2023/06/14 03:33:25;;;;;;;5.70;2.58;;;;;;;;;;4945133;28;98508;-78
2023/06/14 03:35:52;;;;;;;5.50;2.35;;;;;;;;;;4956225;28;100281;-78
2023/06/14 03:38:20;;;;;;;4.13;2.78;;;;;;;;;;4976448;28;98541;-78
2023/06/14 03:40:46;;;;;;;6.00;2.55;;;;;;;;;;4963187;28;97795;-78
2023/06/14 03:43:13;;;;;;;7.47;2.50;;;;;;;;;;4967916;28;99395;-78
2023/06/14 03:45:40;;;;;;;10.93;3.15;;;;;;;;;;4947197;28;102034;-79
2023/06/14 03:48:09;;;;;;;10.70;2.50;;;;;;;;;;4940653;28;98500;-78
2023/06/14 03:50:37;;;;;;;4.20;2.75;;;;;;;;;;4963550;28;98905;-78
2023/06/14 03:53:05;;;;;;;5.75;2.92;;;;;;;;;;4945985;28;97698;-77
2023/06/14 03:55:33;;;;;;;3.50;2.30;;;;;;;;;;4960741;28;99491;-78
2023/06/14 03:58:06;;;;;;;3.63;2.13;;;;;;;;;;4953219;28;98416;-78
2023/06/14 04:00:35;;;;;;;3.60;2.28;;;;;;;;;;4955617;28;99292;-77
2023/06/14 04:03:04;;;;;;;4.47;2.15;;;;;;;;;;4971413;28;99548;-78
2023/06/14 04:05:31;;;;;;;4.13;2.30;;;;;;;;;;4977218;28;101717;-78
2023/06/14 04:08:00;;;;;;;5.85;2.65;;;;;;;;;;4948393;28;98471;-78
2023/06/14 04:10:30;;;;;;;3.38;2.47;;;;;;;;;;4950216;28;100107;-78
2023/06/14 04:12:57;;;;;;;8.50;2.28;;;;;;;;;;4967462;28;100844;-78
2023/06/14 04:15:23;;;;;;;8.27;2.28;;;;;;;;;;4956860;28;98583;-78
2023/06/14 04:17:57;;;;;;;6.40;2.40;;;;;;;;;;4957628;28;98469;-78
2023/06/14 04:20:27;;;;;;;5.70;2.17;;;;;;;;;;4955631;28;98679;-78
2023/06/14 04:22:57;;;;;;;3.63;2.20;;;;;;;;;;4965922;28;98434;-78
2023/06/14 04:25:25;;;;;;;5.38;2.22;;;;;;;;;;4961481;28;99237;-79
2023/06/14 04:27:53;;;;;;;6.15;2.58;;;;;;;;;;4946822;28;98454;-78
2023/06/14 04:30:26;;;;;;;7.65;2.90;;;;;;;;;;4977327;28;98504;-79
2023/06/14 04:32:55;;;;;;;6.70;2.22;;;;;;;;;;4969857;28;101418;-79
2023/06/14 04:35:27;;;;;;;4.50;2.60;;;;;;;;;;4968991;28;98484;-80
2023/06/14 04:37:54;;;;;;;6.07;2.22;;;;;;;;;;4965762;28;100928;-79
2023/06/14 04:40:21;;;;;;;4.65;2.65;;;;;;;;;;4942056;28;98462;-77
2023/06/14 04:42:48;;;;;;;9.73;2.70;;;;;;;;;;4969773;28;98189;-79
2023/06/14 04:45:17;;;;;;;8.52;3.03;;;;;;;;;;4974426;28;100154;-79
2023/06/14 04:47:44;;;;;;;3.03;2.60;;;;;;;;;;4961561;28;98351;-79
2023/06/14 04:50:12;;;;;;;8.88;3.15;;;;;;;;;;4964917;28;99751;-79
2023/06/14 04:52:39;;;;;;;7.32;2.97;;;;;;;;;;4946778;28;100959;-79
2023/06/14 04:55:07;;;;;;;8.60;2.42;;;;;;;;;;4968223;28;98280;-79
2023/06/14 04:57:35;;;;;;;9.40;2.42;;;;;;;;;;4968131;28;98179;-79
2023/06/14 05:00:04;;;;;;;5.05;2.67;;;;;;;;;;4965033;28;98606;-77
2023/06/14 05:02:31;;;;;;;6.80;2.25;;;;;;;;;;4969722;28;98314;-79
2023/06/14 05:04:59;;;;;;;10.63;2.72;;;;;;;;;;4984534;28;98496;-77
2023/06/14 05:07:25;;;;;;;6.35;2.97;;;;;;;;;;4974468;28;97778;-79
2023/06/14 05:09:52;;;;;;;7.88;3.08;;;;;;;;;;4955390;28;98502;-77
2023/06/14 05:12:20;;;;;;;12.27;2.97;;;;;;;;;;4955386;28;101352;-77
2023/06/14 05:14:48;;;;;;;11.18;3.72;;;;;;;;;;4958125;28;99051;-77
2023/06/14 05:17:17;;;;;;;9.50;2.90;;;;;;;;;;4970966;28;102873;-79
2023/06/14 05:19:44;;;;;;;6.55;2.35;;;;;;;;;;4972549;28;98761;-79
2023/06/14 05:22:10;;;;;;;11.73;3.50;;;;;;;;;;4971642;28;99960;-77
2023/06/14 05:24:37;;;;;;;12.65;3.08;;;;;;;;;;4981193;28;98500;-78
2023/06/14 05:27:04;;;;;;;9.15;2.75;;;;;;;;;;4963735;28;98292;-79
2023/06/14 05:29:30;;;;;;;7.22;2.75;;;;;;;;;;4954444;28;99969;-79
2023/06/14 05:31:57;;;;;;;17.55;2.97;;;;;;;;;;4979585;28;100031;-79
2023/06/14 05:34:23;;;;;;;4.50;2.90;;;;;;;;;;4984662;28;98660;-79
2023/06/14 05:36:50;;;;;;;15.82;2.92;;;;;;;;;;4968030;28;98440;-79
2023/06/14 05:39:17;;;;;;;4.22;2.40;;;;;;;;;;4986618;28;99184;-79
2023/06/14 05:41:43;;;;;;;8.30;2.78;;;;;;;;;;4964198;28;98587;-79
2023/06/14 05:44:10;;;;;;;13.68;2.80;;;;;;;;;;4974610;28;98622;-79
2023/06/14 05:46:39;;;;;;;6.57;3.00;;;;;;;;;;4965963;28;98120;-79
2023/06/14 05:49:06;;;;;;;10.70;2.85;;;;;;;;;;4995873;28;98551;-80
2023/06/14 05:51:33;;;;;;;20.90;2.75;;;;;;;;;;4973953;28;98000;-79
2023/06/14 05:54:00;;;;;;;5.80;2.67;;;;;;;;;;4967164;28;98222;-79
2023/06/14 05:56:26;;;;;;;6.72;2.60;;;;;;;;;;4971416;28;100412;-79
2023/06/14 05:58:53;;;;;;;17.55;2.63;;;;;;;;;;4958431;28;98490;-80
2023/06/14 06:01:20;;;;;;;9.27;2.50;;;;;;;;;;4980785;28;98310;-79
2023/06/14 06:03:47;;;;;;;13.65;2.65;;;;;;;;;;4984870;28;101054;-80
2023/06/14 06:06:14;;;;;;;5.38;2.70;;;;;;;;;;4978359;28;98404;-77
2023/06/14 06:08:41;;;;;;;5.88;2.83;;;;;;;;;;4970906;28;98606;-77
2023/06/14 06:11:08;;;;;;;23.42;2.72;;;;;;;;;;4971539;28;99062;-79
2023/06/14 06:13:35;;;;;;;8.93;2.67;;;;;;;;;;4980966;28;98294;-80
2023/06/14 06:16:02;;;;;;;4.85;2.58;;;;;;;;;;4982402;28;98469;-80
2023/06/14 06:18:29;;;;;;;5.80;2.50;;;;;;;;;;4992210;28;99523;-80
2023/06/14 06:20:55;;;;;;;11.07;2.65;;;;;;;;;;4963482;28;97900;-80
2023/06/14 06:23:22;;;;;;;2.70;2.22;;;;;;;;;;4987834;28;98118;-80
2023/06/14 06:25:48;;;;;;;8.98;2.60;;;;;;;;;;4971018;28;98394;-80
2023/06/14 06:28:15;;;;;;;12.35;2.80;;;;;;;;;;4983338;28;99059;-80
2023/06/14 06:30:41;;;;;;;9.38;2.70;;;;;;;;;;4977300;28;100279;-79
2023/06/14 06:33:08;;;;;;;3.60;2.70;;;;;;;;;;4975141;28;98482;-78
2023/06/14 06:35:34;;;;;;;8.43;2.40;;;;;;;;;;4964522;28;98638;-77
2023/06/14 06:38:01;;;;;;;6.85;2.60;;;;;;;;;;4960018;28;98574;-77
2023/06/14 06:40:28;;;;;;;9.20;2.25;;;;;;;;;;4976916;28;98567;-77
2023/06/14 06:42:54;;;;;;;5.15;2.75;;;;;;;;;;4969742;28;98575;-77
2023/06/14 06:45:24;;;;;;;5.85;2.38;;;;;;;;;;4949577;28;97593;-77
2023/06/14 06:47:51;;;;;;;5.32;2.45;;;;;;;;;;4956136;28;99408;-77
2023/06/14 06:50:19;;;;;;;10.15;2.80;;;;;;;;;;4963779;28;98503;-77
2023/06/14 06:52:46;;;;;;;5.88;2.60;;;;;;;;;;4966885;28;99272;-77
2023/06/14 06:55:13;;;;;;;8.07;2.42;;;;;;;;;;4957137;28;98868;-77
2023/06/14 06:57:41;;;;;;;10.32;2.78;;;;;;;;;;4982983;28;98542;-77
2023/06/14 07:00:09;;;;;;;6.63;2.95;;;;;;;;;;4954436;28;98014;-77
2023/06/14 07:02:36;;;;;;;11.70;2.83;;;;;;;;;;4971335;28;98557;-77
2023/06/14 07:05:03;;;;;;;2.85;2.35;;;;;;;;;;4977746;28;98060;-77
2023/06/14 07:07:30;;;;;;;9.90;2.53;;;;;;;;;;4948375;28;101610;-77
2023/06/14 07:09:57;;;;;;;4.47;2.47;;;;;;;;;;4952517;28;97821;-77
2023/06/14 07:12:23;;;;;;;5.93;2.72;;;;;;;;;;4972592;28;98485;-77
2023/06/14 07:14:50;;;;;;;10.77;2.67;;;;;;;;;;4936602;28;102156;-76
2023/06/14 07:17:17;;;;;;;5.70;2.00;;;;;;;;;;4943774;28;99196;-76
2023/06/14 07:19:43;;;;;;;3.53;2.33;;;;;;;;;;4947583;28;98218;-77
2023/06/14 07:22:11;;;;;;;4.53;1.90;;;;;;;;;;4955648;28;101000;-76
2023/06/14 07:24:40;;;;;;;13.10;2.78;;;;;;;;;;4970127;28;98494;-77
2023/06/14 07:27:07;;;;;;;10.05;2.03;;;;;;;;;;4967486;28;98492;-77
2023/06/14 07:29:34;;;;;;;6.45;2.50;;;;;;;;;;4970925;28;99167;-77
2023/06/14 07:32:01;;;;;;;6.05;1.77;;;;;;;;;;4977890;28;98182;-76
2023/06/14 07:34:28;;;;;;;6.70;1.80;;;;;;;;;;4937626;28;100424;-77
2023/06/14 07:36:54;;;;;;;3.83;2.35;;;;;;;;;;4943534;28;98478;-77
2023/06/14 07:39:21;;;;;;;4.93;2.08;;;;;;;;;;4952329;28;98579;-77
2023/06/14 07:41:48;;;;;;;6.20;1.90;;;;;;;;;;4961489;28;99023;-77
2023/06/14 07:44:15;;;;;;;3.63;1.65;;;;;;;;;;4952466;28;98578;-77
2023/06/14 07:46:43;;;;;;;2.33;1.70;;;;;;;;;;4960146;28;98531;-77
2023/06/14 07:49:10;;;;;;;4.88;1.77;;;;;;;;;;4971525;28;98628;-76
2023/06/14 07:51:37;;;;;;;1.90;1.60;;;;;;;;;;4944895;28;98625;-76
2023/06/14 07:54:04;;;;;;;5.68;1.75;;;;;;;;;;4949398;28;101496;-77
2023/06/14 07:56:31;;;;;;;15.30;2.10;;;;;;;;;;4967655;28;98570;-77
2023/06/14 07:58:57;;;;;;;3.38;1.90;;;;;;;;;;4969070;28;98567;-77
2023/06/14 08:01:25;;;;;;;3.92;1.70;;;;;;;;;;4973831;28;98290;-77
2023/06/14 08:03:52;;;;;;;6.88;1.83;;;;;;;;;;4955374;28;98577;-77
2023/06/14 08:06:18;;;;;;;2.08;1.92;;;;;;;;;;4973260;28;99454;-77
2023/06/14 08:08:45;;;;;;;9.43;1.60;;;;;;;;;;4980276;28;99058;-78
2023/06/14 08:11:12;;;;;;;7.75;1.33;;;;;;;;;;4984498;28;98488;-77
2023/06/14 08:13:38;;;;;;;10.65;1.52;;;;;;;;;;4941724;28;100518;-77
2023/06/14 08:16:05;;;;;;;3.58;1.20;;;;;;;;;;4962351;28;100627;-77
2023/06/14 08:18:31;;;;;;;2.55;1.45;;;;;;;;;;4959221;28;99323;-78
2023/06/14 08:20:58;;;;;;;7.50;2.03;;;;;;;;;;4973047;28;98680;-77
2023/06/14 08:23:25;;;;;;;1.55;1.45;;;;;;;;;;4980399;28;97517;-78
2023/06/14 08:25:52;;;;;;;1.42;1.33;;;;;;;;;;4964506;28;98521;-78
2023/06/14 08:28:19;;;;;;;6.60;1.60;;;;;;;;;;4980680;28;98957;-78
2023/06/14 08:30:46;;;;;;;6.35;1.65;;;;;;;;;;4984841;28;99303;-79
2023/06/14 08:33:12;;;;;;;2.85;1.27;;;;;;;;;;4976971;28;98345;-78
2023/06/14 08:35:43;;;;;;;1.48;1.20;;;;;;;;;;4993242;28;98217;-78
2023/06/14 08:38:10;;;;;;;1.55;1.45;;;;;;;;;;4981611;28;98097;-78
2023/06/14 08:40:38;;;;;;;7.28;1.50;;;;;;;;;;4957735;28;100082;-78
2023/06/14 08:43:05;;;;;;;6.07;1.33;;;;;;;;;;4957859;28;98645;-78
2023/06/14 08:45:32;;;;;;;4.82;1.25;;;;;;;;;;4983300;28;98502;-78
2023/06/14 08:47:59;;;;;;;2.13;1.38;;;;;;;;;;4979351;28;97880;-78
2023/06/14 08:50:29;;;;;;;4.25;1.05;;;;;;;;;;4973233;28;98476;-77
2023/06/14 08:53:00;;;;;;;1.38;1.25;;;;;;;;;;4965047;28;98575;-77
2023/06/14 08:55:27;;;;;;;2.90;1.40;;;;;;;;;;4952226;28;100946;-77
2023/06/14 08:57:54;;;;;;;2.40;1.42;;;;;;;;;;4970724;28;98583;-77
2023/06/14 09:00:22;;;;;;;3.20;1.38;;;;;;;;;;4969556;28;98603;-77
2023/06/14 09:02:48;;;;;;;1.40;1.00;;;;;;;;;;4970903;28;99272;-77
2023/06/14 09:05:18;;;;;;;7.47;1.25;;;;;;;;;;4969397;28;99555;-77
2023/06/14 09:07:44;;;;;;;7.85;1.40;;;;;;;;;;4955189;28;100118;-77
2023/06/14 09:10:12;;;;;;;3.30;1.25;;;;;;;;;;4970324;28;99501;-77
2023/06/14 09:12:42;;;;;;;0.90;0.90;;;;;;;;;;4970903;28;97720;-77
2023/06/14 09:15:09;;;;;;;1.58;1.48;;;;;;;;;;4979420;28;98385;-77
2023/06/14 09:17:36;;;;;;;8.18;1.33;;;;;;;;;;4970803;28;98520;-77
2023/06/14 09:20:06;;;;;;;3.13;1.38;;;;;;;;;;4972565;28;99233;-77
2023/06/14 09:22:33;;;;;;;2.05;1.15;;;;;;;;;;4971492;28;98497;-77
2023/06/14 09:24:59;;;;;;;5.55;1.52;;;;;;;;;;4972794;28;98462;-77
2023/06/14 09:27:26;;;;;;;12.82;1.33;;;;;;;;;;4970187;28;98464;-77
2023/06/14 09:29:53;;;;;;;1.23;1.10;;;;;;;;;;4969856;28;98574;-76
2023/06/14 09:32:23;;;;;;;3.65;1.45;;;;;;;;;;4963754;28;98481;-78
2023/06/14 09:34:50;;;;;;;13.35;1.33;;;;;;;;;;4945319;28;100882;-78
2023/06/14 09:37:32;;;;;;;5.38;1.23;;;;;;;;;;4977719;28;97870;-77
2023/06/14 09:39:58;;;;;;;13.32;1.30;;;;;;;;;;4963112;28;98448;-77
2023/06/14 09:42:25;;;;;;;2.63;1.25;;;;;;;;;;4972972;28;98610;-78
2023/06/14 09:44:53;;;;;;;2.17;1.33;;;;;;;;;;4945714;28;99265;-78
2023/06/14 09:47:21;;;;;;;3.00;1.10;;;;;;;;;;4973137;28;98618;-78
2023/06/14 09:49:48;;;;;;;5.38;1.00;;;;;;;;;;4962485;28;99244;-78
2023/06/14 09:52:15;;;;;;;1.88;1.23;;;;;;;;;;4962938;28;98633;-77
2023/06/14 09:54:42;;;;;;;1.63;1.52;;;;;;;;;;4958603;28;98651;-77
2023/06/14 09:57:17;;;;;;;1.25;1.17;;;;;;;;;;4974462;28;98500;-78
2023/06/14 09:59:45;;;;;;;1.98;1.27;;;;;;;;;;4979000;28;98579;-77
2023/06/14 10:02:27;;;;;;;6.28;1.25;;;;;;;;;;4978691;28;98497;-78
2023/06/14 10:05:05;;;;;;;2.90;1.38;;;;;;;;;;4944202;28;98507;-77
2023/06/14 10:07:35;;;;;;;1.70;1.20;;;;;;;;;;4960072;28;98658;-78
2023/06/14 10:10:01;;;;;;;4.75;1.88;;;;;;;;;;4979837;28;100209;-78
2023/06/14 10:12:28;;;;;;;1.85;1.30;;;;;;;;;;4972237;28;98512;-78
2023/06/14 10:14:55;;;;;;;2.50;1.00;;;;;;;;;;4992426;28;99979;-78
2023/06/14 10:17:39;;;;;;;2.17;1.05;;;;;;;;;;4979869;28;98385;-78
2023/06/14 10:20:24;;;;;;;2.00;1.05;;;;;;;;;;4977077;28;98544;-77
2023/06/14 10:22:58;;;;;;;4.32;1.10;;;;;;;;;;4971636;28;98497;-78
2023/06/14 10:25:31;;;;;;;1.23;1.02;;;;;;;;;;4976781;28;98440;-77
2023/06/14 10:28:03;;;;;;;5.47;1.38;;;;;;;;;;4976907;28;100542;-77
2023/06/14 10:30:30;;;;;;;4.18;1.15;;;;;;;;;;4978753;28;99265;-77
2023/06/14 10:33:04;;;;;;;3.50;0.90;;;;;;;;;;4964428;28;98557;-77
2023/06/14 10:35:30;;;;;;;1.17;0.93;;;;;;;;;;4957609;28;99124;-77
2023/06/14 10:38:06;;;;;;;5.85;1.17;;;;;;;;;;4948640;28;98650;-77
2023/06/14 10:40:33;;;;;;;2.05;1.10;;;;;;;;;;4976690;28;98579;-77
2023/06/14 10:42:59;;;;;;;1.30;1.13;;;;;;;;;;4943128;28;99504;-77
2023/06/14 10:45:26;;;;;;;4.10;1.42;;;;;;;;;;4974002;28;98543;-77
2023/06/14 10:47:57;;;;;;;3.47;1.10;;;;;;;;;;4962722;28;98514;-77
2023/06/14 10:50:29;;;;;;;7.05;1.40;;;;;;;;;;4958926;28;98537;-78
2023/06/14 10:52:56;;;;;;;2.55;1.25;;;;;;;;;;4975933;28;98483;-77
2023/06/14 10:55:22;;;;;;;1.10;1.10;;;;;;;;;;4976849;28;98495;-77
2023/06/14 10:57:51;;;;;;;7.25;1.27;;;;;;;;;;4967321;28;98418;-78
2023/06/14 11:00:28;;;;;;;2.08;0.98;;;;;;;;;;4966965;28;99025;-78
2023/06/14 11:03:07;;;;;;;5.35;1.30;;;;;;;;;;4974872;28;99771;-78
2023/06/14 11:05:53;;;;;;;1.63;1.33;;;;;;;;;;4942791;28;98456;-78
2023/06/14 11:08:23;;;;;;;3.33;1.10;;;;;;;;;;4964374;28;98184;-78
2023/06/14 11:10:50;;;;;;;11.88;1.30;;;;;;;;;;4977675;28;98385;-78
2023/06/14 11:13:17;;;;;;;1.60;1.10;;;;;;;;;;4977148;28;98244;-78
2023/06/14 11:15:45;;;;;;;1.27;1.00;;;;;;;;;;4965722;28;99709;-78
2023/06/14 11:18:11;;;;;;;2.58;1.10;;;;;;;;;;4984416;28;97405;-78
2023/06/14 11:20:39;;;;;;;3.17;1.17;;;;;;;;;;4958819;28;98523;-78
2023/06/14 11:23:06;;;;;;;2.13;1.45;;;;;;;;;;4976657;28;98457;-78
2023/06/14 11:25:32;;;;;;;1.67;1.10;;;;;;;;;;4964012;28;101667;-78
2023/06/14 11:28:00;;;;;;;12.35;1.35;;;;;;;;;;4980559;28;98420;-77
2023/06/14 11:30:26;;;;;;;2.17;1.23;;;;;;;;;;4978263;28;98487;-78
2023/06/14 11:32:53;;;;;;;2.30;1.10;;;;;;;;;;4966868;28;98539;-78
2023/06/14 11:35:24;;;;;;;8.63;1.38;;;;;;;;;;4961326;28;99225;-78
2023/06/14 11:37:57;;;;;;;3.80;1.33;;;;;;;;;;4976549;28;99151;-78
2023/06/14 11:40:24;;;;;;;1.10;1.10;;;;;;;;;;4956778;28;98501;-78
2023/06/14 11:42:58;;;;;;;5.38;1.23;;;;;;;;;;4974735;28;97716;-78
2023/06/14 11:45:24;;;;;;;7.07;1.20;;;;;;;;;;4954744;28;100633;-79
2023/06/14 11:47:51;;;;;;;2.78;1.05;;;;;;;;;;4970356;28;98454;-78
2023/06/14 11:50:17;;;;;;;1.35;1.25;;;;;;;;;;4982619;28;100507;-78
2023/06/14 11:52:44;;;;;;;4.22;1.25;;;;;;;;;;4961703;28;98720;-78
2023/06/14 11:55:11;;;;;;;2.33;1.20;;;;;;;;;;4978335;28;98550;-79
2023/06/14 11:57:38;;;;;;;6.00;1.48;;;;;;;;;;4973737;28;98177;-78
2023/06/14 12:00:12;;;;;;;5.28;1.33;;;;;;;;;;4972484;28;97740;-78
2023/06/14 12:02:40;;;;;;;4.78;1.20;;;;;;;;;;4954185;28;98195;-77
2023/06/14 12:05:10;;;;;;;7.50;1.23;;;;;;;;;;4972099;28;98617;-77
2023/06/14 12:07:39;;;;;;;6.10;1.52;;;;;;;;;;4928830;28;97851;-78
2023/06/14 12:10:10;;;;;;;5.20;1.30;;;;;;;;;;4967562;28;98582;-78
2023/06/14 12:12:38;;;;;;;2.47;1.25;;;;;;;;;;4947938;28;98753;-77
2023/06/14 12:15:06;;;;;;;3.92;0.80;;;;;;;;;;4965116;28;98642;-78
2023/06/14 12:17:38;;;;;;;1.90;1.20;;;;;;;;;;4921898;28;101038;-77
2023/06/14 12:20:16;;;;;;;7.50;1.42;;;;;;;;;;4987849;28;98628;-78
2023/06/14 12:22:53;;;;;;;9.07;1.05;;;;;;;;;;4972208;28;98352;-78
2023/06/14 12:25:23;;;;;;;7.85;1.25;;;;;;;;;;4960895;28;99571;-77
2023/06/14 12:27:50;;;;;;;1.10;0.90;;;;;;;;;;4958961;28;98602;-77
2023/06/14 12:30:17;;;;;;;1.10;0.88;;;;;;;;;;4974677;28;98567;-77
2023/06/14 12:32:45;;;;;;;12.10;1.33;;;;;;;;;;4974935;28;97817;-78
2023/06/14 12:35:11;;;;;;;4.40;1.00;;;;;;;;;;4969034;28;98132;-78
2023/06/14 12:37:39;;;;;;;2.55;1.10;;;;;;;;;;4958450;28;98182;-78
2023/06/14 12:40:05;;;;;;;3.42;1.10;;;;;;;;;;4975259;28;99236;-77
2023/06/14 12:42:33;;;;;;;6.15;1.10;;;;;;;;;;4959981;28;100760;-77
2023/06/14 12:45:00;;;;;;;3.63;1.17;;;;;;;;;;4967516;28;99395;-77
2023/06/14 12:47:26;;;;;;;7.30;1.42;;;;;;;;;;4973157;28;97917;-78
2023/06/14 12:49:53;;;;;;;1.23;1.13;;;;;;;;;;4980670;28;98571;-78
2023/06/14 12:52:20;;;;;;;1.85;1.05;;;;;;;;;;4952589;28;98699;-77
2023/06/14 12:54:46;;;;;;;1.13;1.02;;;;;;;;;;4955688;28;98317;-78
2023/06/14 12:57:13;;;;;;;2.00;1.20;;;;;;;;;;4967698;28;100424;-77
2023/06/14 12:59:39;;;;;;;8.15;1.10;;;;;;;;;;4974698;28;98536;-77
2023/06/14 13:02:16;;;;;;;3.00;0.95;;;;;;;;;;4981412;28;98668;-77
2023/06/14 13:04:43;;;;;;;5.55;1.38;;;;;;;;;;4974711;28;99570;-78
2023/06/14 13:07:10;;;;;;;7.38;1.05;;;;;;;;;;4951021;28;98437;-77
2023/06/14 13:09:37;;;;;;;1.65;1.17;;;;;;;;;;4981274;28;99902;-77
2023/06/14 13:12:04;;;;;;;2.10;1.02;;;;;;;;;;4975854;28;98514;-78
2023/06/14 13:14:32;;;;;;;4.32;1.00;;;;;;;;;;4974678;28;98174;-76
2023/06/14 13:16:58;;;;;;;2.15;1.60;;;;;;;;;;4955656;28;100799;-78
2023/06/14 13:19:25;;;;;;;3.88;1.00;;;;;;;;;;4942577;28;98481;-77
2023/06/14 13:21:52;;;;;;;2.58;1.08;;;;;;;;;;4939511;28;97638;-77
2023/06/14 13:24:18;;;;;;;1.95;0.95;;;;;;;;;;4967084;28;98393;-77
2023/06/14 13:26:45;;;;;;;1.73;1.38;;;;;;;;;;4968864;28;98476;-78
2023/06/14 13:29:11;;;;;;;5.53;1.15;;;;;;;;;;4973714;28;99176;-77
2023/06/14 13:31:38;;;;;;;5.47;1.23;;;;;;;;;;4974988;28;98425;-77
2023/06/14 13:34:07;;;;;;;4.00;1.10;;;;;;;;;;4958265;28;98514;-77
2023/06/14 13:36:34;;;;;;;4.75;1.20;;;;;;;;;;4975966;28;98564;-77
2023/06/14 13:39:01;;;;;;;1.33;1.00;;;;;;;;;;4960243;28;98170;-78
2023/06/14 13:41:33;;;;;;;3.78;1.38;;;;;;;;;;4962082;28;98384;-77
2023/06/14 13:44:00;;;;;;;2.17;1.10;;;;;;;;;;4985648;28;99582;-77
2023/06/14 13:46:26;;;;;;;1.25;1.00;;;;;;;;;;4969530;28;97685;-77
2023/06/14 13:48:54;;;;;;;5.45;0.98;;;;;;;;;;4980030;28;98561;-78
2023/06/14 13:51:20;;;;;;;3.47;1.00;;;;;;;;;;4977511;28;99339;-78
2023/06/14 13:53:50;;;;;;;7.53;1.10;;;;;;;;;;4956735;28;99278;-78
2023/06/14 13:56:17;;;;;;;5.47;1.00;;;;;;;;;;4974803;28;99962;-77
2023/06/14 13:58:44;;;;;;;4.75;0.98;;;;;;;;;;4984956;28;99072;-78
2023/06/14 14:01:11;;;;;;;2.80;0.90;;;;;;;;;;4966995;28;98617;-78
2023/06/14 14:03:38;;;;;;;1.17;1.08;;;;;;;;;;4966070;28;98443;-78
2023/06/14 14:06:05;;;;;;;5.20;0.90;;;;;;;;;;4987997;28;98474;-78
2023/06/14 14:08:32;;;;;;;3.53;0.77;;;;;;;;;;4974518;28;98223;-78
2023/06/14 14:10:59;;;;;;;1.55;0.80;;;;;;;;;;4958833;28;99278;-77
2023/06/14 14:13:25;;;;;;;2.17;0.82;;;;;;;;;;4945419;28;98394;-77
2023/06/14 14:15:52;;;;;;;4.47;0.93;;;;;;;;;;4966021;28;98590;-77
2023/06/14 14:18:20;;;;;;;3.05;0.82;;;;;;;;;;4963768;28;99178;-77
2023/06/14 14:20:48;;;;;;;9.83;1.20;;;;;;;;;;4977586;28;98461;-78
2023/06/14 14:23:14;;;;;;;2.00;1.13;;;;;;;;;;4959790;28;98514;-78
2023/06/14 14:25:41;;;;;;;3.40;0.80;;;;;;;;;;4972064;28;98568;-78
2023/06/14 14:28:07;;;;;;;2.85;1.15;;;;;;;;;;4966628;28;98832;-77
2023/06/14 14:30:34;;;;;;;4.22;0.75;;;;;;;;;;4976223;28;99327;-78
2023/06/14 14:33:00;;;;;;;5.03;1.60;;;;;;;;;;4978521;28;98299;-78
2023/06/14 14:35:30;;;;;;;1.42;0.90;;;;;;;;;;4978536;28;97557;-78
2023/06/14 14:37:57;;;;;;;8.40;0.80;;;;;;;;;;4988216;28;100006;-78
2023/06/14 14:40:23;;;;;;;5.45;1.00;;;;;;;;;;4961181;28;98552;-78
2023/06/14 14:42:50;;;;;;;2.80;0.80;;;;;;;;;;4959392;28;98708;-78